Time;durP1;ratioP1;P1;durP2;ratioP2;P2;SDS_P1;SDS_P2;PMS_P1;PMS_P2;Temp;Humidity;BMP_temperature;BMP_pressure;BME280_temperature;BME280_humidity;BME280_pressure;Samples;Min_cycle;Max_cycle;Signal;HPM_P1;HPM_P2
2021/10/14 00:09:54;;;;;;;3.97;1.17;;;15.00;39.60;;;;;;20889099;27;80634;-70
2021/10/14 00:19:56;;;;;;;5.22;0.90;;;14.90;39.80;;;;;;20888055;28;81669;-70
2021/10/14 00:29:59;;;;;;;5.73;1.13;;;14.70;40.20;;;;;;20886915;28;82074;-68
2021/10/14 00:40:01;;;;;;;6.88;1.13;;;14.60;40.60;;;;;;20886405;28;80906;-69
2021/10/14 00:50:03;;;;;;;6.33;1.30;;;14.60;41.10;;;;;;20886590;27;80604;-70
2021/10/14 01:00:07;;;;;;;3.37;1.63;;;14.40;41.30;;;;;;20885497;28;81966;-69
2021/10/14 01:10:10;;;;;;;5.47;1.35;;;14.40;41.90;;;;;;20885895;28;82150;-69
2021/10/14 01:20:13;;;;;;;8.43;1.10;;;14.30;42.30;;;;;;20884103;28;82159;-70
2021/10/14 01:30:19;;;;;;;4.43;1.23;;;14.30;42.70;;;;;;20885124;27;80027;-69
2021/10/14 01:40:22;;;;;;;2.47;0.83;;;14.20;43.20;;;;;;20883514;27;80817;-69
2021/10/14 01:50:24;;;;;;;5.13;1.13;;;14.10;43.40;;;;;;20881542;28;80090;-69
2021/10/14 02:00:27;;;;;;;3.80;1.40;;;14.00;43.70;;;;;;20882617;27;80986;-70
2021/10/14 02:10:31;;;;;;;8.60;1.60;;;14.00;44.10;;;;;;20880586;28;81695;-71
2021/10/14 02:20:40;;;;;;;5.68;1.63;;;13.90;44.30;;;;;;20881468;27;80968;-69
2021/10/14 02:30:45;;;;;;;5.47;1.48;;;13.90;44.70;;;;;;20879272;27;80330;-71
2021/10/14 02:40:50;;;;;;;4.93;0.98;;;13.90;44.80;;;;;;20894191;27;80917;-72
2021/10/14 02:50:53;;;;;;;4.90;1.47;;;13.90;45.30;;;;;;20894210;28;81659;-70
2021/10/14 03:00:57;;;;;;;3.25;0.90;;;13.70;45.90;;;;;;20893236;27;81864;-70
2021/10/14 03:11:03;;;;;;;7.00;1.42;;;13.70;46.10;;;;;;20892892;27;81761;-70
2021/10/14 03:21:12;;;;;;;3.88;1.50;;;13.60;46.10;;;;;;20892332;27;80423;-70
2021/10/14 03:31:23;;;;;;;5.57;1.20;;;13.50;46.50;;;;;;20891701;27;80737;-70
2021/10/14 03:41:45;;;;;;;3.08;1.30;;;13.30;47.00;;;;;;20893118;27;82301;-71
2021/10/14 03:52:03;;;;;;;4.15;1.05;;;13.20;46.90;;;;;;20889221;27;80533;-68
2021/10/14 04:02:13;;;;;;;3.83;1.40;;;13.00;46.70;;;;;;20890028;27;80693;-68
2021/10/14 04:12:21;;;;;;;4.20;0.98;;;13.00;46.80;;;;;;20889448;27;80191;-67
2021/10/14 04:22:32;;;;;;;4.13;1.30;;;12.90;47.00;;;;;;20846863;28;80491;-68
2021/10/14 04:32:42;;;;;;;5.68;1.85;;;12.90;47.20;;;;;;20833850;28;80967;-69
2021/10/14 04:42:51;;;;;;;7.43;1.30;;;12.90;47.30;;;;;;20873936;27;82300;-70
2021/10/14 04:53:09;;;;;;;5.57;1.13;;;12.80;47.40;;;;;;20873638;27;81309;-69
2021/10/14 05:03:12;;;;;;;3.17;1.53;;;12.70;47.50;;;;;;20863725;27;81328;-67
2021/10/14 05:13:15;;;;;;;7.60;1.88;;;12.60;47.70;;;;;;20875073;27;82128;-67
2021/10/14 05:23:18;;;;;;;8.87;2.20;;;12.40;48.30;;;;;;20873296;27;81235;-69
2021/10/14 05:33:21;;;;;;;8.93;2.50;;;12.30;48.40;;;;;;20867568;28;81669;-67
2021/10/14 05:43:24;;;;;;;7.68;1.85;;;12.30;48.60;;;;;;20870597;27;81707;-72
2021/10/14 05:53:28;;;;;;;5.15;1.58;;;12.30;48.70;;;;;;20871373;28;81826;-68
2021/10/14 06:03:30;;;;;;;6.72;2.10;;;12.30;49.00;;;;;;20870920;27;81741;-69
2021/10/14 06:13:36;;;;;;;7.75;1.98;;;12.30;49.10;;;;;;20883841;27;82068;-66
2021/10/14 06:23:37;;;;;;;11.88;2.00;;;12.30;49.30;;;;;;20882212;27;81656;-68
2021/10/14 06:33:40;;;;;;;11.27;2.23;;;12.10;49.60;;;;;;20886382;27;81359;-68
2021/10/14 06:43:43;;;;;;;10.52;2.20;;;12.00;49.80;;;;;;20881588;27;81797;-67
2021/10/14 06:53:44;;;;;;;8.50;1.88;;;12.10;50.00;;;;;;20880910;27;81990;-65
2021/10/14 07:03:48;;;;;;;7.83;1.90;;;12.10;49.70;;;;;;20878534;27;80548;-66
2021/10/14 07:13:50;;;;;;;11.30;2.80;;;12.10;49.50;;;;;;20880347;27;81840;-66
2021/10/14 07:23:52;;;;;;;11.52;2.28;;;12.40;49.40;;;;;;20876901;27;82059;-66
2021/10/14 07:33:56;;;;;;;21.20;3.78;;;12.70;48.80;;;;;;20880783;27;82112;-66
2021/10/14 07:44:00;;;;;;;11.93;2.73;;;13.10;48.20;;;;;;20880557;28;81894;-67
2021/10/14 07:54:04;;;;;;;8.07;2.70;;;13.50;47.50;;;;;;20876930;27;81275;-65
2021/10/14 08:04:08;;;;;;;9.73;3.13;;;13.90;46.80;;;;;;20878019;27;81094;-65
2021/10/14 08:14:12;;;;;;;7.95;3.13;;;14.20;46.10;;;;;;20879297;28;81833;-66
2021/10/14 08:24:15;;;;;;;10.85;3.35;;;14.70;45.30;;;;;;20879209;27;80644;-66
2021/10/14 08:34:17;;;;;;;9.85;3.03;;;15.10;44.50;;;;;;20877332;27;81891;-65
2021/10/14 08:44:31;;;;;;;8.07;3.45;;;15.50;43.90;;;;;;20874478;27;80700;-66
2021/10/14 08:54:32;;;;;;;19.13;5.13;;;16.00;43.30;;;;;;20874621;27;81622;-66
2021/10/14 09:04:52;;;;;;;10.27;3.92;;;16.70;42.60;;;;;;20876833;27;81858;-64
2021/10/14 09:14:59;;;;;;;9.25;4.40;;;17.20;42.20;;;;;;20872328;28;81294;-65
2021/10/14 09:25:01;;;;;;;11.73;4.82;;;17.90;42.20;;;;;;20868073;28;81572;-64
2021/10/14 09:35:04;;;;;;;15.60;5.13;;;18.50;41.90;;;;;;20868948;27;81631;-64
2021/10/14 09:45:30;;;;;;;12.05;6.05;;;19.70;41.60;;;;;;20872957;27;80703;-65
2021/10/14 09:55:32;;;;;;;17.38;6.80;;;23.00;37.20;;;;;;20863308;28;81577;-66
2021/10/14 10:05:35;;;;;;;17.97;8.13;;;25.40;34.40;;;;;;20867876;27;81861;-66
2021/10/14 10:15:48;;;;;;;21.80;6.90;;;27.60;31.50;;;;;;20865287;27;81817;-65
2021/10/14 10:25:50;;;;;;;14.90;7.57;;;30.00;29.60;;;;;;20868413;27;83552;-66
2021/10/14 10:35:53;;;;;;;16.17;7.13;;;32.90;26.20;;;;;;20868849;27;81122;-66
2021/10/14 10:46:03;;;;;;;14.00;6.88;;;35.00;24.50;;;;;;20870272;27;82211;-66
2021/10/14 10:56:06;;;;;;;8.77;5.72;;;37.00;23.00;;;;;;20872827;27;80914;-66
2021/10/14 11:06:09;;;;;;;24.17;6.88;;;38.40;21.80;;;;;;20881691;27;81589;-66
2021/10/14 11:16:13;;;;;;;7.93;5.70;;;39.90;20.60;;;;;;20879876;27;81830;-66
2021/10/14 11:26:31;;;;;;;13.25;5.85;;;40.00;20.40;;;;;;20879785;27;81030;-65
2021/10/14 11:36:35;;;;;;;14.45;5.82;;;33.20;26.70;;;;;;20881338;27;81223;-67
2021/10/14 11:46:39;;;;;;;10.20;5.93;;;33.10;27.50;;;;;;20880905;28;81582;-65
2021/10/14 11:56:54;;;;;;;10.18;5.65;;;36.40;24.00;;;;;;20882245;27;81881;-66
2021/10/14 12:06:57;;;;;;;10.43;5.50;;;34.80;24.60;;;;;;20877806;27;81825;-67
2021/10/14 12:17:18;;;;;;;10.93;5.10;;;32.10;28.10;;;;;;20879473;27;80756;-66
2021/10/14 12:27:20;;;;;;;14.73;5.57;;;30.50;30.00;;;;;;20876271;27;82000;-66
2021/10/14 12:37:28;;;;;;;10.93;5.15;;;33.50;26.30;;;;;;20878216;27;81894;-66
2021/10/14 12:47:43;;;;;;;11.98;5.68;;;35.40;24.20;;;;;;20880513;27;82366;-67
2021/10/14 12:57:45;;;;;;;8.05;4.25;;;33.20;26.90;;;;;;20888782;27;81056;-67
2021/10/14 13:07:47;;;;;;;14.15;4.80;;;34.90;25.20;;;;;;20886398;28;80753;-71
2021/10/14 13:17:49;;;;;;;6.40;4.22;;;36.60;23.30;;;;;;20887110;27;81085;-66
2021/10/14 13:27:51;;;;;;;10.77;3.88;;;33.80;26.10;;;;;;20886128;28;80910;-66
2021/10/14 13:37:54;;;;;;;8.65;3.95;;;31.50;28.00;;;;;;20887512;27;79924;-66
2021/10/14 13:47:56;;;;;;;6.05;2.80;;;30.00;29.10;;;;;;20885084;28;81107;-65
2021/10/14 13:57:58;;;;;;;6.00;3.28;;;31.80;27.00;;;;;;20884460;28;81825;-66
2021/10/14 14:07:59;;;;;;;5.70;3.45;;;33.90;24.60;;;;;;20884625;27;81759;-66
2021/10/14 14:18:02;;;;;;;9.00;3.42;;;34.70;23.30;;;;;;20878028;27;81707;-66
2021/10/14 14:28:04;;;;;;;6.32;2.60;;;32.40;25.20;;;;;;20879226;27;80755;-63
2021/10/14 14:38:06;;;;;;;4.97;2.50;;;31.00;25.90;;;;;;20889919;28;80893;-65
2021/10/14 14:48:08;;;;;;;4.47;2.20;;;29.90;26.50;;;;;;20889720;27;81931;-66
2021/10/14 14:58:09;;;;;;;7.15;2.50;;;29.60;26.80;;;;;;20894355;27;80585;-71
2021/10/14 15:08:12;;;;;;;6.03;2.20;;;29.90;25.40;;;;;;20889959;27;80107;-66
2021/10/14 15:18:15;;;;;;;6.45;2.15;;;32.20;23.10;;;;;;20886632;27;80531;-66
2021/10/14 15:28:17;;;;;;;6.28;2.47;;;31.60;23.20;;;;;;20888018;27;80882;-65
2021/10/14 15:38:20;;;;;;;6.88;2.25;;;31.00;23.30;;;;;;20880302;27;80805;-65
2021/10/14 15:48:22;;;;;;;5.80;1.80;;;33.20;21.30;;;;;;20887370;28;81706;-66
2021/10/14 15:58:25;;;;;;;5.30;2.00;;;31.70;22.60;;;;;;20893101;27;81825;-66
2021/10/14 16:08:28;;;;;;;4.70;1.92;;;28.40;25.60;;;;;;20878033;27;80679;-66
2021/10/14 16:18:34;;;;;;;4.75;1.85;;;26.90;26.50;;;;;;20831478;28;80009;-65
2021/10/14 16:28:36;;;;;;;3.20;1.83;;;26.20;26.50;;;;;;20817470;28;80752;-66
2021/10/14 16:38:39;;;;;;;3.13;1.58;;;25.70;27.20;;;;;;20817616;28;81013;-64
2021/10/14 16:48:41;;;;;;;3.55;2.00;;;25.10;28.70;;;;;;20816524;28;80112;-67
2021/10/14 16:58:43;;;;;;;4.90;1.88;;;24.60;28.70;;;;;;20805814;28;80723;-66
2021/10/14 17:08:45;;;;;;;7.50;3.30;;;24.30;30.40;;;;;;20878707;28;79932;-67
2021/10/14 17:18:51;;;;;;;11.07;3.08;;;23.90;31.50;;;;;;20844211;27;80789;-71
2021/10/14 17:39:24;;;;;;;8.03;6.47;;;22.90;33.90;;;;;;20867408;28;80494;-71
2021/10/14 17:49:27;;;;;;;16.70;6.63;;;22.40;35.30;;;;;;20881333;27;80630;-71
2021/10/14 17:59:29;;;;;;;14.13;5.95;;;21.90;36.50;;;;;;20851802;27;79990;-70
2021/10/14 18:40:26;;;;;;;19.88;7.35;;;21.00;38.70;;;;;;20815848;28;81793;-72
2021/10/14 19:00:42;;;;;;;22.05;7.35;;;20.50;40.10;;;;;;20823301;28;80778;-71
2021/10/14 20:22:52;;;;;;;14.20;4.72;;;19.10;44.40;;;;;;20835194;28;81004;-71
2021/10/14 20:32:54;;;;;;;11.15;5.05;;;18.90;44.30;;;;;;20810244;28;81875;-73
2021/10/14 20:42:57;;;;;;;15.13;5.23;;;18.70;44.60;;;;;;20880747;27;82038;-73
2021/10/14 20:53:02;;;;;;;17.43;5.17;;;18.40;44.90;;;;;;20877303;28;80588;-72
2021/10/14 21:03:04;;;;;;;9.85;3.47;;;18.10;45.40;;;;;;20905210;27;81963;-71
2021/10/14 21:13:07;;;;;;;7.65;4.07;;;17.90;45.80;;;;;;20881636;28;80682;-73
2021/10/14 21:23:12;;;;;;;11.13;4.88;;;17.60;46.10;;;;;;20837942;27;81592;-71
2021/10/14 21:43:34;;;;;;;10.68;3.75;;;17.40;46.70;;;;;;20881434;28;81235;-73
2021/10/14 21:53:36;;;;;;;9.30;3.60;;;17.20;47.20;;;;;;20884276;27;81849;-71
2021/10/14 22:03:38;;;;;;;7.63;3.03;;;17.20;47.10;;;;;;20882966;27;80783;-71
2021/10/14 22:13:41;;;;;;;7.10;3.30;;;17.00;47.30;;;;;;20882956;27;81889;-72
2021/10/14 22:23:43;;;;;;;11.05;3.80;;;16.80;47.80;;;;;;20843391;28;81869;-71
2021/10/14 22:33:45;;;;;;;7.77;3.40;;;16.60;48.50;;;;;;20859119;27;81081;-72
2021/10/14 22:43:47;;;;;;;6.22;2.67;;;16.40;49.10;;;;;;20842090;28;82441;-71
2021/10/14 22:53:49;;;;;;;7.68;3.08;;;16.20;49.50;;;;;;20889532;27;81842;-71
2021/10/14 23:03:51;;;;;;;6.17;3.20;;;16.00;49.90;;;;;;20894027;27;80107;-71
2021/10/14 23:13:53;;;;;;;9.77;2.80;;;15.80;50.30;;;;;;20892363;28;81894;-71
2021/10/14 23:23:55;;;;;;;5.82;3.17;;;15.70;50.60;;;;;;20891723;27;81987;-71
2021/10/14 23:33:57;;;;;;;7.85;3.47;;;15.60;50.80;;;;;;20890408;28;81838;-71
2021/10/14 23:43:58;;;;;;;8.82;3.08;;;15.40;51.40;;;;;;20891009;27;80585;-71
2021/10/14 23:54:00;;;;;;;12.63;3.30;;;15.40;51.50;;;;;;20889936;28;81825;-70
